Time;durP1;ratioP1;P1;durP2;ratioP2;P2;SDS_P1;SDS_P2;PMS_P1;PMS_P2;Temp;Humidity;BMP_temperature;BMP_pressure;BME280_temperature;BME280_humidity;BME280_pressure;Samples;Min_cycle;Max_cycle;Signal;HPM_P1;HPM_P2
2021/12/08 00:00:56;;;;;;;;;;;6.60;99.90;;;;;;5119953;27;19923;-75
2021/12/08 00:03:23;;;;;;;;;;;6.60;99.90;;;;;;5118226;27;20002;-75
2021/12/08 00:05:50;;;;;;;;;;;6.70;99.90;;;;;;5130712;27;19924;-75
2021/12/08 00:08:18;;;;;;;;;;;6.70;99.90;;;;;;5113677;27;20453;-75
2021/12/08 00:13:32;;;;;;;;;;;6.70;99.90;;;;;;5118686;27;20043;-75
2021/12/08 00:16:02;;;;;;;;;;;6.70;99.90;;;;;;5120109;28;20159;-75
2021/12/08 00:18:32;;;;;;;;;;;6.70;99.90;;;;;;5116866;28;19924;-75
2021/12/08 00:21:00;;;;;;;;;;;6.70;99.90;;;;;;5114434;28;20022;-75
2021/12/08 00:23:27;;;;;;;;;;;6.60;99.90;;;;;;5117017;28;20374;-75
2021/12/08 00:25:55;;;;;;;;;;;6.70;99.90;;;;;;5112085;28;20289;-75
2021/12/08 00:28:22;;;;;;;;;;;6.70;99.90;;;;;;5124680;28;20378;-75
2021/12/08 00:30:50;;;;;;;;;;;6.70;99.90;;;;;;5113618;28;19924;-75
2021/12/08 00:33:19;;;;;;;;;;;6.70;99.90;;;;;;5114630;28;20003;-75
2021/12/08 00:35:47;;;;;;;;;;;6.70;99.90;;;;;;5112380;28;19924;-75
2021/12/08 00:38:14;;;;;;;;;;;6.80;99.90;;;;;;5124476;28;19923;-75
2021/12/08 00:40:41;;;;;;;;;;;6.70;99.90;;;;;;5130431;28;19923;-75
2021/12/08 00:43:07;;;;;;;;;;;6.70;99.90;;;;;;5124165;28;19931;-74
2021/12/08 00:45:35;;;;;;;;;;;6.70;99.90;;;;;;5122142;28;19929;-74
2021/12/08 00:48:02;;;;;;;;;;;6.70;99.90;;;;;;5125747;28;20290;-75
2021/12/08 00:50:31;;;;;;;;;;;6.80;99.90;;;;;;5122083;28;20019;-75
2021/12/08 00:52:58;;;;;;;;;;;6.70;99.90;;;;;;5123850;28;20293;-75
2021/12/08 00:55:25;;;;;;;;;;;6.70;99.90;;;;;;5116176;28;19924;-75
2021/12/08 00:57:52;;;;;;;;;;;6.70;99.90;;;;;;5122939;28;19923;-75
2021/12/08 01:00:20;;;;;;;;;;;6.70;99.90;;;;;;5122085;28;20010;-75
2021/12/08 01:02:47;;;;;;;;;;;6.60;99.90;;;;;;5121201;28;19993;-74
2021/12/08 01:05:16;;;;;;;;;;;6.60;99.90;;;;;;5131962;28;19949;-74
2021/12/08 01:07:45;;;;;;;;;;;6.60;99.90;;;;;;5126688;28;19923;-74
2021/12/08 01:10:14;;;;;;;;;;;6.70;99.90;;;;;;5123818;28;20006;-75
2021/12/08 01:12:41;;;;;;;;;;;6.60;99.90;;;;;;5118594;28;20026;-74
2021/12/08 01:15:08;;;;;;;;;;;6.60;99.90;;;;;;5117664;28;19928;-76
2021/12/08 01:17:36;;;;;;;;;;;6.60;99.90;;;;;;5135653;27;19924;-74
2021/12/08 01:20:04;;;;;;;;;;;6.60;99.90;;;;;;5130789;27;19946;-75
2021/12/08 01:22:30;;;;;;;;;;;6.50;99.90;;;;;;5123933;27;19930;-74
2021/12/08 01:24:58;;;;;;;;;;;6.40;99.90;;;;;;5117074;27;19928;-74
2021/12/08 01:27:25;;;;;;;;;;;6.30;99.90;;;;;;5120473;27;19923;-74
2021/12/08 01:29:52;;;;;;;;;;;6.30;99.90;;;;;;5129969;27;20007;-75
2021/12/08 01:32:19;;;;;;;;;;;6.20;99.90;;;;;;5120360;27;20015;-74
2021/12/08 01:34:46;;;;;;;;;;;6.20;99.90;;;;;;5123742;27;19923;-74
2021/12/08 01:37:13;;;;;;;;;;;6.10;99.90;;;;;;5118806;27;19931;-74
2021/12/08 01:39:39;;;;;;;;;;;6.10;99.90;;;;;;5121652;27;19924;-74
2021/12/08 01:42:15;;;;;;;;;;;6.20;99.90;;;;;;5130897;27;19930;-74
2021/12/08 01:47:27;;;;;;;;;;;6.10;99.90;;;;;;5131626;27;19931;-74
2021/12/08 01:49:53;;;;;;;;;;;6.10;99.90;;;;;;5133666;27;20465;-74
2021/12/08 01:52:20;;;;;;;;;;;6.20;99.90;;;;;;5131093;27;20019;-74
2021/12/08 01:54:47;;;;;;;;;;;6.30;99.90;;;;;;5125997;27;19959;-74
2021/12/08 01:57:15;;;;;;;;;;;6.30;99.90;;;;;;5125792;27;19924;-75
2021/12/08 01:59:42;;;;;;;;;;;6.30;99.90;;;;;;5125890;27;19949;-75
2021/12/08 02:02:08;;;;;;;;;;;6.40;99.90;;;;;;5127672;27;20037;-75
2021/12/08 02:04:36;;;;;;;;;;;6.50;99.90;;;;;;5127638;27;19924;-75
2021/12/08 02:07:03;;;;;;;;;;;6.50;99.90;;;;;;5121957;27;19980;-75
2021/12/08 02:09:29;;;;;;;;;;;6.50;99.90;;;;;;5133506;27;20014;-77
2021/12/08 02:11:56;;;;;;;;;;;6.40;99.90;;;;;;5126053;27;19932;-75
2021/12/08 02:14:25;;;;;;;;;;;6.40;99.90;;;;;;5118157;27;19938;-76
2021/12/08 02:16:53;;;;;;;;;;;6.30;99.90;;;;;;5124808;27;19923;-75
2021/12/08 02:19:20;;;;;;;;;;;6.20;99.90;;;;;;5132569;27;19924;-75
2021/12/08 02:21:52;;;;;;;;;;;6.10;99.90;;;;;;5123364;27;20289;-75
2021/12/08 02:24:19;;;;;;;;;;;6.10;99.90;;;;;;5119589;27;19974;-75
2021/12/08 02:26:48;;;;;;;;;;;6.00;99.90;;;;;;5114899;27;19924;-75
2021/12/08 02:29:18;;;;;;;;;;;6.00;99.90;;;;;;5124235;27;19923;-75
2021/12/08 02:31:51;;;;;;;;;;;6.00;99.90;;;;;;5121727;27;19924;-75
2021/12/08 02:48:01;;;;;;;;;;;5.80;99.90;;;;;;5127216;27;19930;-77
2021/12/08 02:50:29;;;;;;;;;;;5.80;99.90;;;;;;5116090;27;19928;-75
2021/12/08 02:52:58;;;;;;;;;;;5.80;99.90;;;;;;5128851;27;20301;-75
2021/12/08 02:55:25;;;;;;;;;;;5.80;99.90;;;;;;5122241;27;19930;-75
2021/12/08 02:57:52;;;;;;;;;;;5.80;99.90;;;;;;5115331;27;19924;-75
2021/12/08 03:00:23;;;;;;;;;;;5.80;99.90;;;;;;5120702;27;20018;-75
2021/12/08 03:02:50;;;;;;;;;;;5.70;99.90;;;;;;5128019;27;20278;-75
2021/12/08 03:05:17;;;;;;;;;;;5.70;99.90;;;;;;5118141;27;19924;-75
2021/12/08 03:07:43;;;;;;;;;;;5.70;99.90;;;;;;5121515;27;20375;-75
2021/12/08 03:10:13;;;;;;;;;;;5.60;99.90;;;;;;5126881;27;20014;-75
2021/12/08 03:12:40;;;;;;;;;;;5.60;99.90;;;;;;5126143;27;19924;-75
2021/12/08 03:15:07;;;;;;;;;;;5.60;99.90;;;;;;5119631;27;19924;-75
2021/12/08 03:17:34;;;;;;;;;;;5.60;99.90;;;;;;5121693;27;20014;-75
2021/12/08 03:20:02;;;;;;;;;;;5.50;99.90;;;;;;5126085;27;19930;-75
2021/12/08 03:22:30;;;;;;;;;;;5.40;99.90;;;;;;5124975;27;19963;-76
2021/12/08 03:24:59;;;;;;;;;;;5.40;99.90;;;;;;5125570;27;20397;-76
2021/12/08 03:27:33;;;;;;;;;;;5.30;99.90;;;;;;5120914;27;19924;-75
2021/12/08 03:30:12;;;;;;;;;;;5.30;99.90;;;;;;5126158;27;19931;-75
2021/12/08 03:32:40;;;;;;;;;;;5.30;99.90;;;;;;5120639;27;19924;-75
2021/12/08 03:35:07;;;;;;;;;;;5.30;99.90;;;;;;5118504;27;19923;-76
2021/12/08 03:37:35;;;;;;;;;;;5.20;99.90;;;;;;5121337;27;19937;-75
2021/12/08 03:40:05;;;;;;;;;;;5.20;99.90;;;;;;5116697;27;19942;-75
2021/12/08 03:42:35;;;;;;;;;;;5.10;99.90;;;;;;5128331;27;19923;-75
2021/12/08 03:45:06;;;;;;;;;;;5.10;99.90;;;;;;5121012;27;19930;-75
2021/12/08 03:47:33;;;;;;;;;;;5.10;99.90;;;;;;5128677;27;19942;-76
2021/12/08 03:50:00;;;;;;;;;;;5.10;99.90;;;;;;5124106;27;19930;-75
2021/12/08 03:52:27;;;;;;;;;;;5.10;99.90;;;;;;5123199;27;19924;-75
2021/12/08 03:54:54;;;;;;;;;;;5.10;99.90;;;;;;5126473;27;19924;-75
2021/12/08 03:57:21;;;;;;;;;;;5.20;99.90;;;;;;5121500;27;19924;-75
2021/12/08 03:59:49;;;;;;;;;;;5.10;99.90;;;;;;5119984;27;19974;-75
2021/12/08 04:02:16;;;;;;;;;;;5.10;99.90;;;;;;5123222;27;19924;-75
2021/12/08 04:04:46;;;;;;;;;;;5.10;99.90;;;;;;5125262;28;19927;-75
2021/12/08 04:07:15;;;;;;;;;;;5.10;99.90;;;;;;5122011;27;19923;-74
2021/12/08 04:09:43;;;;;;;;;;;5.00;99.90;;;;;;5125675;28;20019;-74
2021/12/08 04:12:11;;;;;;;;;;;5.10;99.90;;;;;;5121101;28;19923;-74
2021/12/08 04:14:43;;;;;;;;;;;5.10;99.90;;;;;;5126830;28;19934;-74
2021/12/08 04:17:13;;;;;;;;;;;5.00;99.90;;;;;;5125102;28;20463;-74
2021/12/08 04:19:41;;;;;;;;;;;4.90;99.90;;;;;;5123673;28;20314;-74
2021/12/08 04:22:14;;;;;;;;;;;4.90;99.90;;;;;;5124170;28;20022;-75
2021/12/08 04:24:41;;;;;;;;;;;4.90;99.90;;;;;;5123653;28;19977;-74
2021/12/08 04:27:09;;;;;;;;;;;5.00;99.90;;;;;;5122518;28;20022;-74
2021/12/08 04:29:38;;;;;;;;;;;5.00;99.90;;;;;;5124983;28;19949;-74
2021/12/08 04:32:05;;;;;;;;;;;4.90;99.90;;;;;;5119636;27;19924;-75
2021/12/08 04:34:37;;;;;;;;;;;4.90;99.90;;;;;;5127536;28;19968;-75
2021/12/08 04:37:16;;;;;;;;;;;4.90;99.90;;;;;;5120674;28;20389;-75
2021/12/08 04:39:51;;;;;;;;;;;4.90;99.90;;;;;;5118322;28;19927;-74
2021/12/08 04:42:19;;;;;;;;;;;5.00;99.90;;;;;;5120492;28;19923;-74
2021/12/08 04:44:51;;;;;;;;;;;5.00;99.90;;;;;;5125535;28;19931;-74
2021/12/08 04:47:34;;;;;;;;;;;4.90;99.90;;;;;;5116353;28;19928;-75
2021/12/08 04:50:31;;;;;;;;;;;4.90;99.90;;;;;;5121785;27;19968;-74
2021/12/08 04:53:05;;;;;;;;;;;4.90;99.90;;;;;;5132793;27;19931;-75
2021/12/08 05:01:23;;;;;;;;;;;4.90;99.90;;;;;;5124515;27;19931;-75
2021/12/08 05:04:24;;;;;;;;;;;4.90;99.90;;;;;;5122488;27;19931;-75
2021/12/08 05:07:03;;;;;;;;;;;5.00;99.90;;;;;;5121884;27;19945;-75
2021/12/08 05:09:31;;;;;;;;;;;5.00;99.90;;;;;;5134447;27;19931;-75
2021/12/08 05:12:00;;;;;;;;;;;4.90;99.90;;;;;;5124146;27;19928;-75
2021/12/08 05:14:28;;;;;;;;;;;4.90;99.90;;;;;;5136063;27;20014;-75
2021/12/08 05:16:57;;;;;;;;;;;4.90;99.90;;;;;;5126565;27;19923;-74
2021/12/08 05:19:24;;;;;;;;;;;4.90;99.90;;;;;;5119712;27;19969;-74
2021/12/08 05:21:54;;;;;;;;;;;4.80;99.90;;;;;;5122457;27;20026;-74
2021/12/08 05:24:22;;;;;;;;;;;4.80;99.90;;;;;;5120136;27;19929;-74
2021/12/08 05:26:50;;;;;;;;;;;4.70;99.90;;;;;;5125635;27;19943;-74
2021/12/08 05:29:19;;;;;;;;;;;4.70;99.90;;;;;;5117268;27;19931;-74
2021/12/08 05:31:48;;;;;;;;;;;4.80;99.90;;;;;;5116496;27;19935;-74
2021/12/08 05:34:15;;;;;;;;;;;4.70;99.90;;;;;;5124167;27;19927;-75
2021/12/08 05:36:41;;;;;;;;;;;4.70;99.90;;;;;;5120256;27;19931;-75
2021/12/08 05:39:11;;;;;;;;;;;4.70;99.90;;;;;;5122999;27;20003;-75
2021/12/08 05:41:40;;;;;;;;;;;4.70;99.90;;;;;;5117716;27;20192;-75
2021/12/08 05:44:08;;;;;;;;;;;4.70;99.90;;;;;;5124136;27;19923;-77
2021/12/08 05:46:35;;;;;;;;;;;4.60;99.90;;;;;;5140281;27;19992;-77
2021/12/08 05:49:02;;;;;;;;;;;4.60;99.90;;;;;;5140679;27;19973;-76
2021/12/08 05:51:31;;;;;;;;;;;4.60;99.90;;;;;;5137802;27;20014;-77
2021/12/08 05:53:59;;;;;;;;;;;4.60;99.90;;;;;;5130062;27;20026;-77
2021/12/08 05:56:28;;;;;;;;;;;4.60;99.90;;;;;;5138155;27;19977;-77
2021/12/08 05:58:56;;;;;;;;;;;4.60;99.90;;;;;;5138714;27;19923;-77
2021/12/08 06:01:25;;;;;;;;;;;4.60;99.90;;;;;;5136818;27;19968;-77
2021/12/08 06:03:51;;;;;;;;;;;4.60;99.90;;;;;;5136790;27;20378;-77
2021/12/08 06:06:20;;;;;;;;;;;4.60;99.90;;;;;;5118467;28;19930;-76
2021/12/08 06:08:47;;;;;;;;;;;4.60;99.90;;;;;;5126682;27;19924;-76
2021/12/08 06:11:13;;;;;;;;;;;4.60;99.90;;;;;;5118963;27;19924;-76
2021/12/08 06:13:42;;;;;;;;;;;4.60;99.90;;;;;;5134344;27;19923;-76
2021/12/08 06:16:10;;;;;;;;;;;4.60;99.90;;;;;;5125833;27;19924;-76
2021/12/08 06:18:39;;;;;;;;;;;4.60;99.90;;;;;;5126185;27;19924;-76
2021/12/08 06:21:08;;;;;;;;;;;4.70;99.90;;;;;;5123076;27;19928;-76
2021/12/08 06:23:35;;;;;;;;;;;4.60;99.90;;;;;;5131523;27;19923;-76
2021/12/08 06:26:02;;;;;;;;;;;4.60;99.90;;;;;;5123640;27;19970;-77
2021/12/08 06:28:29;;;;;;;;;;;4.60;99.90;;;;;;5129889;27;19930;-77
2021/12/08 06:30:57;;;;;;;;;;;4.60;99.90;;;;;;5122452;27;20006;-78
2021/12/08 06:33:23;;;;;;;;;;;4.60;99.90;;;;;;5134288;27;19930;-77
2021/12/08 06:35:51;;;;;;;;;;;4.60;99.90;;;;;;5125850;27;19927;-78
2021/12/08 06:38:19;;;;;;;;;;;4.60;99.90;;;;;;5128864;27;20018;-78
2021/12/08 06:40:47;;;;;;;;;;;4.60;99.90;;;;;;5130295;27;19946;-77
2021/12/08 06:43:17;;;;;;;;;;;4.70;99.90;;;;;;5127244;27;20006;-77
2021/12/08 06:45:45;;;;;;;;;;;4.90;99.90;;;;;;5117140;27;19930;-77
2021/12/08 06:48:15;;;;;;;;;;;4.90;99.90;;;;;;5120789;27;19927;-77
2021/12/08 06:50:44;;;;;;;;;;;4.90;99.90;;;;;;5121467;27;20006;-76
2021/12/08 06:53:10;;;;;;;;;;;4.90;99.90;;;;;;5130063;27;19974;-76
2021/12/08 06:55:38;;;;;;;;;;;4.80;99.90;;;;;;5120298;27;20109;-77
2021/12/08 06:58:07;;;;;;;;;;;4.80;99.90;;;;;;5127816;27;19923;-77
2021/12/08 07:00:47;;;;;;;;;;;4.70;99.90;;;;;;5125044;27;19988;-77
2021/12/08 07:03:31;;;;;;;;;;;4.70;99.90;;;;;;5120009;27;19956;-78
2021/12/08 07:06:09;;;;;;;;;;;4.60;99.90;;;;;;5125680;27;20290;-78
2021/12/08 07:08:37;;;;;;;;;;;4.60;99.90;;;;;;5118546;27;20320;-76
2021/12/08 07:11:05;;;;;;;;;;;4.60;99.90;;;;;;5126590;27;19969;-76
2021/12/08 07:13:32;;;;;;;;;;;4.60;99.90;;;;;;5122539;27;19930;-76
2021/12/08 07:16:00;;;;;;;;;;;4.60;99.90;;;;;;5131961;27;19967;-77
2021/12/08 07:18:37;;;;;;;;;;;4.60;99.90;;;;;;5116448;27;19924;-75
2021/12/08 07:21:05;;;;;;;;;;;4.50;99.90;;;;;;5120141;27;19931;-73
2021/12/08 07:23:36;;;;;;;;;;;4.50;99.90;;;;;;5127668;27;19924;-76
2021/12/08 07:26:06;;;;;;;;;;;4.60;99.90;;;;;;5126424;27;19970;-79
2021/12/08 07:28:33;;;;;;;;;;;4.60;99.90;;;;;;5119831;27;20027;-77
2021/12/08 07:31:02;;;;;;;;;;;4.50;99.90;;;;;;5122091;27;19923;-76
2021/12/08 07:33:30;;;;;;;;;;;4.50;99.90;;;;;;5119665;27;20370;-76
2021/12/08 07:35:59;;;;;;;;;;;4.40;99.90;;;;;;5115220;27;20370;-76
2021/12/08 07:38:27;;;;;;;;;;;4.40;99.90;;;;;;5119711;27;19928;-75
2021/12/08 07:40:58;;;;;;;;;;;4.40;99.90;;;;;;5124471;27;20426;-76
2021/12/08 07:43:26;;;;;;;;;;;4.50;99.90;;;;;;5131817;27;20271;-75
2021/12/08 07:45:56;;;;;;;;;;;4.40;99.90;;;;;;5124516;27;19976;-76
2021/12/08 07:48:25;;;;;;;;;;;4.40;99.90;;;;;;5124131;27;19935;-76
2021/12/08 07:50:54;;;;;;;;;;;4.40;99.90;;;;;;5120533;27;19923;-76
2021/12/08 07:53:22;;;;;;;;;;;4.50;99.90;;;;;;5117612;27;20450;-76
2021/12/08 07:55:54;;;;;;;;;;;4.40;99.90;;;;;;5124593;27;19924;-77
2021/12/08 07:58:24;;;;;;;;;;;4.40;99.90;;;;;;5126878;27;19923;-77
2021/12/08 08:00:52;;;;;;;;;;;4.40;99.90;;;;;;5129489;27;20409;-77
2021/12/08 08:03:22;;;;;;;;;;;4.40;99.90;;;;;;5127806;27;19969;-77
2021/12/08 08:05:51;;;;;;;;;;;4.40;99.90;;;;;;5118809;27;19970;-77
2021/12/08 08:08:20;;;;;;;;;;;4.40;99.90;;;;;;5122279;27;19928;-77
2021/12/08 08:10:48;;;;;;;;;;;4.40;99.90;;;;;;5120823;27;19923;-77
2021/12/08 08:13:16;;;;;;;;;;;4.40;99.90;;;;;;5123636;28;19924;-76
2021/12/08 08:15:46;;;;;;;;;;;4.60;99.90;;;;;;5125014;28;19934;-76
2021/12/08 08:18:14;;;;;;;;;;;4.60;99.90;;;;;;5124470;28;19923;-76
2021/12/08 08:20:47;;;;;;;;;;;4.70;99.90;;;;;;5115265;28;19924;-75
2021/12/08 08:23:15;;;;;;;;;;;4.80;99.90;;;;;;5125050;28;20453;-75
2021/12/08 08:25:44;;;;;;;;;;;4.80;99.90;;;;;;5126565;27;19949;-76
2021/12/08 08:28:11;;;;;;;;;;;4.90;99.90;;;;;;5123698;27;19930;-76
2021/12/08 08:30:39;;;;;;;;;;;4.90;99.90;;;;;;5128628;27;19938;-75
2021/12/08 08:33:05;;;;;;;;;;;5.00;99.90;;;;;;5125989;27;19927;-76
2021/12/08 08:35:35;;;;;;;;;;;5.00;99.90;;;;;;5130141;27;20432;-76
2021/12/08 08:38:04;;;;;;;;;;;5.00;99.90;;;;;;5120844;27;19930;-76
2021/12/08 08:40:32;;;;;;;;;;;5.00;99.90;;;;;;5123093;27;19927;-77
2021/12/08 08:43:01;;;;;;;;;;;5.10;99.90;;;;;;5125827;27;19935;-79
2021/12/08 08:45:30;;;;;;;;;;;5.20;99.90;;;;;;5130625;27;19966;-78
2021/12/08 08:47:58;;;;;;;;;;;5.20;99.90;;;;;;5125978;27;19924;-78
2021/12/08 08:50:28;;;;;;;;;;;5.20;99.90;;;;;;5122817;27;20016;-78
2021/12/08 08:52:57;;;;;;;;;;;5.30;99.90;;;;;;5134633;27;20514;-77
2021/12/08 08:55:26;;;;;;;;;;;5.30;99.90;;;;;;5133282;27;20003;-79
2021/12/08 08:57:53;;;;;;;;;;;5.30;99.90;;;;;;5131985;27;19923;-76
2021/12/08 09:00:25;;;;;;;;;;;5.30;99.90;;;;;;5121420;27;19938;-76
2021/12/08 09:02:53;;;;;;;;;;;5.30;99.90;;;;;;5129316;27;19970;-76
2021/12/08 09:05:22;;;;;;;;;;;5.30;99.90;;;;;;5119709;27;20437;-77
2021/12/08 09:07:51;;;;;;;;;;;5.30;99.90;;;;;;5122865;27;19930;-76
2021/12/08 09:10:20;;;;;;;;;;;5.30;99.90;;;;;;5125246;27;19928;-76
2021/12/08 09:12:49;;;;;;;;;;;5.40;99.90;;;;;;5132744;27;19930;-76
2021/12/08 09:15:18;;;;;;;;;;;5.50;99.90;;;;;;5137317;27;20010;-76
2021/12/08 09:17:48;;;;;;;;;;;5.50;99.90;;;;;;5133963;27;19930;-76
2021/12/08 09:20:20;;;;;;;;;;;5.50;99.90;;;;;;5123290;27;19931;-78
2021/12/08 09:22:55;;;;;;;;;;;5.50;99.90;;;;;;5134517;27;19924;-78
2021/12/08 09:25:25;;;;;;;;;;;5.50;99.90;;;;;;5129876;27;19924;-76
2021/12/08 09:27:53;;;;;;;;;;;5.50;99.90;;;;;;5130976;27;19927;-74
2021/12/08 09:30:23;;;;;;;;;;;5.40;99.90;;;;;;5119833;27;19994;-79
2021/12/08 09:32:53;;;;;;;;;;;5.40;99.90;;;;;;5133332;27;20347;-76
2021/12/08 09:35:22;;;;;;;;;;;5.50;99.90;;;;;;5132074;27;19942;-75
2021/12/08 09:37:50;;;;;;;;;;;5.50;99.90;;;;;;5121898;27;20307;-76
2021/12/08 09:40:22;;;;;;;;;;;5.50;99.90;;;;;;5127312;27;19924;-76
2021/12/08 09:42:50;;;;;;;;;;;5.50;99.90;;;;;;5124505;27;19924;-77
2021/12/08 09:45:18;;;;;;;;;;;5.50;99.90;;;;;;5120444;27;19947;-76
2021/12/08 09:47:44;;;;;;;;;;;5.60;99.90;;;;;;5123498;27;20015;-76
2021/12/08 09:50:14;;;;;;;;;;;5.60;99.90;;;;;;5123137;27;19943;-78
2021/12/08 09:52:41;;;;;;;;;;;5.60;99.90;;;;;;5134953;27;19923;-77
2021/12/08 09:55:09;;;;;;;;;;;5.60;99.90;;;;;;5131677;27;20274;-76
2021/12/08 09:57:37;;;;;;;;;;;5.70;99.90;;;;;;5133173;27;19973;-76
2021/12/08 10:00:05;;;;;;;;;;;5.80;99.90;;;;;;5134330;27;19983;-75
2021/12/08 10:02:34;;;;;;;;;;;5.80;99.90;;;;;;5122210;27;20008;-75
2021/12/08 10:05:02;;;;;;;;;;;5.90;99.90;;;;;;5129764;27;19924;-75
2021/12/08 10:07:30;;;;;;;;;;;6.00;99.90;;;;;;5130920;27;20014;-75
2021/12/08 10:09:56;;;;;;;;;;;6.20;99.90;;;;;;5122894;27;19923;-75
2021/12/08 10:12:24;;;;;;;;;;;6.20;99.90;;;;;;5129735;27;20289;-76
2021/12/08 10:14:51;;;;;;;;;;;6.30;99.90;;;;;;5130630;27;20030;-76
2021/12/08 10:17:18;;;;;;;;;;;6.20;99.90;;;;;;5138324;27;19970;-76
2021/12/08 10:19:46;;;;;;;;;;;6.10;99.90;;;;;;5128095;27;20038;-75
2021/12/08 10:22:17;;;;;;;;;;;6.20;99.90;;;;;;5120432;27;19930;-75
2021/12/08 10:25:01;;;;;;;;;;;6.20;99.90;;;;;;5117729;27;19930;-74
2021/12/08 10:27:28;;;;;;;;;;;6.20;99.90;;;;;;5127507;27;19933;-76
2021/12/08 10:29:54;;;;;;;;;;;6.10;99.90;;;;;;5121965;27;19938;-75
2021/12/08 10:32:21;;;;;;;;;;;6.00;99.90;;;;;;5122718;27;19930;-74
2021/12/08 10:35:03;;;;;;;;;;;5.90;99.90;;;;;;5125791;27;19923;-74
2021/12/08 10:37:30;;;;;;;;;;;6.00;99.90;;;;;;5129435;27;19923;-75
2021/12/08 10:40:07;;;;;;;;;;;6.10;99.90;;;;;;5128398;27;19923;-75
2021/12/08 10:42:34;;;;;;;;;;;6.20;99.90;;;;;;5123233;27;19923;-75
2021/12/08 10:45:08;;;;;;;;;;;6.30;99.90;;;;;;5121804;27;19931;-75
2021/12/08 10:47:36;;;;;;;;;;;6.30;99.90;;;;;;5115985;27;20542;-73
2021/12/08 10:55:39;;;;;;;;;;;6.40;99.90;;;;;;5118074;27;20007;-76
2021/12/08 10:58:06;;;;;;;;;;;6.50;99.90;;;;;;5124935;27;19924;-76
2021/12/08 11:00:34;;;;;;;;;;;6.50;99.90;;;;;;5118411;27;21025;-77
2021/12/08 11:03:01;;;;;;;;;;;6.40;99.90;;;;;;5125544;27;20009;-79
2021/12/08 11:05:49;;;;;;;;;;;6.40;99.90;;;;;;5129689;27;19995;-78
2021/12/08 11:08:19;;;;;;;;;;;6.40;99.90;;;;;;5124310;27;19984;-78
2021/12/08 11:10:49;;;;;;;;;;;6.40;99.90;;;;;;5122179;27;20404;-79
2021/12/08 11:13:16;;;;;;;;;;;6.40;99.90;;;;;;5123930;27;19924;-79
2021/12/08 11:15:43;;;;;;;;;;;6.40;99.90;;;;;;5134827;27;19935;-81
2021/12/08 11:18:12;;;;;;;;;;;6.40;99.90;;;;;;5127656;27;19924;-78
2021/12/08 11:20:46;;;;;;;;;;;6.40;99.90;;;;;;5117347;27;19923;-78
2021/12/08 11:23:17;;;;;;;;;;;6.40;99.90;;;;;;5130970;27;19923;-80
2021/12/08 11:25:46;;;;;;;;;;;6.40;99.90;;;;;;5124560;27;19923;-79
2021/12/08 11:28:24;;;;;;;;;;;6.40;99.90;;;;;;5123663;27;19958;-79
2021/12/08 11:30:52;;;;;;;;;;;6.50;99.90;;;;;;5134031;27;19931;-79
2021/12/08 11:33:22;;;;;;;;;;;6.40;99.90;;;;;;5128984;27;19928;-78
2021/12/08 11:35:49;;;;;;;;;;;6.40;99.90;;;;;;5118818;27;19932;-77
2021/12/08 11:38:24;;;;;;;;;;;6.40;99.90;;;;;;5118981;27;19924;-78
2021/12/08 11:40:51;;;;;;;;;;;6.50;99.90;;;;;;5125042;27;20030;-78
2021/12/08 11:43:28;;;;;;;;;;;6.40;99.90;;;;;;5127134;27;19930;-77
2021/12/08 11:46:10;;;;;;;;;;;6.50;99.90;;;;;;5128779;27;19972;-77
2021/12/08 11:48:49;;;;;;;;;;;6.40;99.90;;;;;;5121464;27;20449;-77
2021/12/08 11:51:17;;;;;;;;;;;6.40;99.90;;;;;;5126588;27;19930;-77
2021/12/08 11:53:43;;;;;;;;;;;6.50;99.90;;;;;;5124114;27;19969;-75
2021/12/08 11:56:29;;;;;;;;;;;6.40;99.90;;;;;;5125875;27;19971;-74
2021/12/08 11:58:56;;;;;;;;;;;6.40;99.90;;;;;;5127967;27;19969;-73
2021/12/08 12:01:25;;;;;;;;;;;6.40;99.90;;;;;;5121103;27;19953;-74
2021/12/08 12:03:51;;;;;;;;;;;6.50;99.90;;;;;;5121118;27;19928;-76
2021/12/08 12:06:18;;;;;;;;;;;6.60;99.90;;;;;;5121063;27;19942;-75
2021/12/08 12:08:47;;;;;;;;;;;6.60;99.90;;;;;;5119424;27;20010;-74
2021/12/08 12:11:15;;;;;;;;;;;6.70;99.90;;;;;;5126280;27;20263;-75
2021/12/08 12:13:42;;;;;;;;;;;6.70;99.90;;;;;;5128528;27;19924;-77
2021/12/08 12:16:09;;;;;;;;;;;6.70;99.90;;;;;;5124012;28;19923;-76
2021/12/08 12:18:37;;;;;;;;;;;6.70;99.90;;;;;;5124661;28;19936;-76
2021/12/08 12:21:12;;;;;;;;;;;6.60;99.90;;;;;;5125330;28;19928;-75
2021/12/08 12:23:47;;;;;;;;;;;6.60;99.90;;;;;;5119903;28;19924;-77
2021/12/08 12:26:19;;;;;;;;;;;6.70;99.90;;;;;;5120765;28;20447;-76
2021/12/08 12:29:03;;;;;;;;;;;6.80;99.90;;;;;;5123364;28;20385;-76
2021/12/08 12:31:33;;;;;;;;;;;6.80;99.90;;;;;;5114547;28;19931;-75
2021/12/08 12:34:01;;;;;;;;;;;6.80;99.90;;;;;;5124983;28;19924;-75
2021/12/08 12:36:29;;;;;;;;;;;6.70;99.90;;;;;;5129456;28;19929;-78
2021/12/08 12:39:10;;;;;;;;;;;6.70;99.90;;;;;;5122194;28;19924;-76
2021/12/08 12:41:37;;;;;;;;;;;6.80;99.90;;;;;;5124585;28;19923;-77
2021/12/08 12:44:14;;;;;;;;;;;6.60;99.90;;;;;;5127461;28;19923;-76
2021/12/08 12:46:56;;;;;;;;;;;6.60;99.90;;;;;;5121281;28;19931;-76
2021/12/08 12:49:24;;;;;;;;;;;6.50;99.90;;;;;;5125746;28;20014;-76
2021/12/08 12:52:00;;;;;;;;;;;6.50;99.90;;;;;;5124718;28;20022;-77
2021/12/08 12:54:27;;;;;;;;;;;6.50;99.90;;;;;;5117768;28;20413;-78
2021/12/08 12:56:54;;;;;;;;;;;6.50;99.90;;;;;;5124314;28;19987;-77
2021/12/08 12:59:23;;;;;;;;;;;6.50;99.90;;;;;;5125031;28;19927;-76
2021/12/08 13:02:04;;;;;;;;;;;6.50;99.90;;;;;;5118384;28;19930;-76
2021/12/08 13:04:35;;;;;;;;;;;6.50;99.90;;;;;;5131126;28;19966;-77
2021/12/08 13:07:02;;;;;;;;;;;6.40;99.90;;;;;;5123716;28;19927;-77
2021/12/08 13:09:39;;;;;;;;;;;6.40;99.90;;;;;;5117651;28;20016;-78
2021/12/08 13:12:07;;;;;;;;;;;6.40;99.90;;;;;;5126269;27;20420;-77
2021/12/08 13:14:34;;;;;;;;;;;6.50;99.90;;;;;;5119700;27;19946;-77
2021/12/08 13:17:22;;;;;;;;;;;6.50;99.90;;;;;;5134543;27;19955;-80
2021/12/08 13:19:52;;;;;;;;;;;6.40;99.90;;;;;;5148067;27;19924;-80
2021/12/08 13:22:38;;;;;;;;;;;6.40;99.90;;;;;;5137556;27;19907;-81
2021/12/08 13:25:05;;;;;;;;;;;6.40;99.90;;;;;;5152127;27;19912;-79
2021/12/08 13:27:31;;;;;;;;;;;6.40;99.90;;;;;;5143153;27;19971;-76
2021/12/08 13:30:09;;;;;;;;;;;6.40;99.90;;;;;;5147248;27;19933;-79
2021/12/08 13:32:45;;;;;;;;;;;6.50;99.90;;;;;;5125384;27;19963;-79
2021/12/08 13:35:16;;;;;;;;;;;6.50;99.90;;;;;;5140659;27;19931;-80
2021/12/08 13:37:56;;;;;;;;;;;6.50;99.90;;;;;;5153511;27;19927;-81
2021/12/08 13:40:39;;;;;;;;;;;6.40;99.90;;;;;;5155695;27;19924;-80
2021/12/08 13:43:09;;;;;;;;;;;6.30;99.90;;;;;;5140818;27;19954;-81
2021/12/08 13:45:41;;;;;;;;;;;6.30;99.90;;;;;;5135497;27;19911;-79
2021/12/08 13:48:07;;;;;;;;;;;6.30;99.90;;;;;;5154625;27;20726;-79
2021/12/08 13:53:23;;;;;;;;;;;6.30;99.90;;;;;;5132622;27;19923;-80
2021/12/08 13:55:53;;;;;;;;;;;6.30;99.90;;;;;;5143176;27;19923;-78
2021/12/08 13:58:22;;;;;;;;;;;6.30;99.90;;;;;;5136509;27;19981;-80
2021/12/08 14:00:54;;;;;;;;;;;6.20;99.90;;;;;;5135029;27;19946;-75
2021/12/08 14:03:23;;;;;;;;;;;6.20;99.90;;;;;;5130159;27;19981;-75
2021/12/08 14:05:52;;;;;;;;;;;6.30;99.90;;;;;;5119591;27;20030;-77
2021/12/08 14:08:21;;;;;;;;;;;6.20;99.90;;;;;;5132100;27;20018;-78
2021/12/08 14:10:49;;;;;;;;;;;6.20;99.90;;;;;;5126141;27;19924;-77
2021/12/08 14:13:17;;;;;;;;;;;6.20;99.90;;;;;;5121887;27;19932;-77
2021/12/08 14:15:45;;;;;;;;;;;6.10;99.90;;;;;;5128432;27;19935;-78
2021/12/08 14:18:20;;;;;;;;;;;6.10;99.90;;;;;;5135943;27;19923;-81
2021/12/08 14:20:47;;;;;;;;;;;6.20;99.90;;;;;;5125082;27;19928;-78
2021/12/08 14:23:16;;;;;;;;;;;6.20;99.90;;;;;;5128908;27;19927;-79
2021/12/08 14:25:45;;;;;;;;;;;6.20;99.90;;;;;;5138444;27;19962;-79
2021/12/08 14:28:38;;;;;;;;;;;6.30;99.90;;;;;;5128704;27;19927;-80
2021/12/08 14:31:06;;;;;;;;;;;6.30;99.90;;;;;;5125028;27;19962;-80
2021/12/08 14:33:33;;;;;;;;;;;6.30;99.90;;;;;;5125208;27;20382;-77
2021/12/08 14:36:02;;;;;;;;;;;6.30;99.90;;;;;;5126483;27;19924;-77
2021/12/08 14:38:30;;;;;;;;;;;6.30;99.90;;;;;;5122862;27;19976;-76
2021/12/08 14:40:57;;;;;;;;;;;6.30;99.90;;;;;;5127674;27;19934;-76
2021/12/08 14:43:24;;;;;;;;;;;6.30;99.90;;;;;;5122768;27;19934;-76
2021/12/08 14:45:51;;;;;;;;;;;6.30;99.90;;;;;;5119679;27;19930;-76
2021/12/08 14:48:18;;;;;;;;;;;6.30;99.90;;;;;;5122001;27;19923;-74
2021/12/08 14:50:44;;;;;;;;;;;6.20;99.90;;;;;;5117852;27;19964;-74
2021/12/08 14:53:12;;;;;;;;;;;6.10;99.90;;;;;;5125615;27;19968;-75
2021/12/08 14:55:41;;;;;;;;;;;6.00;99.90;;;;;;5114027;27;20425;-74
2021/12/08 14:58:11;;;;;;;;;;;5.90;99.90;;;;;;5110361;27;21423;-75
2021/12/08 15:00:39;;;;;;;;;;;5.80;99.90;;;;;;5111777;27;19927;-74
2021/12/08 15:03:11;;;;;;;;;;;5.70;99.90;;;;;;5115279;27;20455;-75
2021/12/08 15:05:38;;;;;;;;;;;5.70;99.90;;;;;;5122453;27;20371;-76
2021/12/08 15:08:09;;;;;;;;;;;5.60;99.90;;;;;;5131754;27;20026;-74
2021/12/08 15:10:36;;;;;;;;;;;5.60;99.90;;;;;;5117798;27;19923;-76
2021/12/08 15:13:08;;;;;;;;;;;5.60;99.90;;;;;;5122940;27;19924;-76
2021/12/08 15:15:35;;;;;;;;;;;5.60;99.90;;;;;;5120291;27;19978;-76
2021/12/08 15:18:03;;;;;;;;;;;5.50;99.90;;;;;;5122599;27;20027;-74